Time;durP1;ratioP1;P1;durP2;ratioP2;P2;SDS_P1;SDS_P2;PMS_P1;PMS_P2;Temp;Humidity;BMP_temperature;BMP_pressure;BME280_temperature;BME280_humidity;BME280_pressure;Samples;Min_cycle;Max_cycle;Signal;HPM_P1;HPM_P2
2021/09/25 00:00:44;;;;;;;11.87;7.87;;;;;;;14.76;88.59;101400.09;2089917;28;20033;-62
2021/09/25 00:01:44;;;;;;;14.83;7.93;;;;;;;14.77;88.68;101391.31;2089882;28;20036;-64
2021/09/25 00:02:44;;;;;;;18.00;9.17;;;;;;;14.76;88.35;101400.09;2090543;28;20029;-64
2021/09/25 00:03:44;;;;;;;14.10;9.13;;;;;;;14.74;88.70;101386.16;2090580;28;20467;-64
2021/09/25 00:04:45;;;;;;;13.43;8.17;;;;;;;14.73;88.58;101390.59;2090513;28;20033;-64
2021/09/25 00:05:45;;;;;;;13.27;7.93;;;;;;;14.73;88.55;101395.00;2090441;28;20029;-64
2021/09/25 00:06:45;;;;;;;14.53;8.77;;;;;;;14.73;88.30;101379.22;2090470;28;20040;-63
2021/09/25 00:07:46;;;;;;;12.67;7.43;;;;;;;14.74;88.61;101386.16;2090450;28;20059;-64
2021/09/25 00:08:46;;;;;;;14.60;8.07;;;;;;;14.73;88.66;101395.00;2090516;28;20078;-64
2021/09/25 00:09:46;;;;;;;14.43;8.20;;;;;;;14.72;88.59;101385.41;2090481;28;20407;-63
2021/09/25 00:10:46;;;;;;;12.40;7.37;;;;;;;14.70;88.73;101388.13;2090440;28;20040;-63
2021/09/25 00:11:47;;;;;;;13.90;8.87;;;;;;;14.71;88.30;101388.97;2090339;28;20032;-63
2021/09/25 00:12:47;;;;;;;11.38;7.03;;;;;;;14.70;88.32;101390.75;2090443;28;20062;-63
2021/09/25 00:13:48;;;;;;;14.63;7.63;;;;;;;14.72;88.16;101380.16;2090419;28;20031;-64
2021/09/25 00:14:48;;;;;;;12.07;7.77;;;;;;;14.71;88.56;101388.97;2090394;28;20025;-65
2021/09/25 00:15:48;;;;;;;12.00;7.27;;;;;;;14.71;88.53;101383.72;2089717;28;20551;-64
2021/09/25 00:16:49;;;;;;;16.67;7.63;;;;;;;14.69;87.93;101383.81;2089874;28;20020;-64
2021/09/25 00:17:49;;;;;;;10.67;7.33;;;;;;;14.67;87.97;101386.50;2090345;28;20482;-64
2021/09/25 00:18:49;;;;;;;15.00;7.97;;;;;;;14.67;88.06;101383.88;2090393;28;20094;-65
2021/09/25 00:19:49;;;;;;;15.60;7.70;;;;;;;14.67;88.25;101383.88;2090354;28;20396;-63
2021/09/25 00:20:50;;;;;;;14.27;7.40;;;;;;;14.67;88.09;101386.50;2089688;28;20025;-64
2021/09/25 00:21:50;;;;;;;13.17;7.60;;;;;;;14.67;88.19;101386.50;2089766;28;20032;-63
2021/09/25 00:22:50;;;;;;;15.67;6.93;;;;;;;14.66;87.95;101386.59;2090361;28;20111;-65
2021/09/25 00:23:52;;;;;;;12.60;8.33;;;;;;;14.67;87.88;101383.88;2090083;28;20045;-64
2021/09/25 00:24:52;;;;;;;;;;;;;;;14.69;87.72;101383.81;2090817;28;20441;-64
2021/09/25 00:25:53;;;;;;;11.15;6.70;;;;;;;14.67;87.67;101386.50;2090331;28;19915;-64
2021/09/25 00:26:54;;;;;;;11.05;7.82;;;;;;;14.67;87.97;101386.50;2090248;28;20116;-63
2021/09/25 00:27:54;;;;;;;15.43;7.70;;;;;;;14.67;87.63;101386.50;2090281;28;20029;-64
2021/09/25 00:28:55;;;;;;;13.20;7.40;;;;;;;14.68;87.61;101390.81;2089702;28;20037;-63
2021/09/25 00:29:56;;;;;;;;;;;;;;;14.69;87.44;101383.81;2090011;28;20025;-63
2021/09/25 00:30:56;;;;;;;12.30;6.60;;;;;;;14.68;87.20;101385.56;2089746;28;20412;-64
2021/09/25 00:31:56;;;;;;;8.33;6.13;;;;;;;14.67;87.55;101376.00;2090229;28;20032;-64
2021/09/25 00:32:57;;;;;;;11.67;7.17;;;;;;;14.67;87.52;101386.50;2089728;28;20025;-64
2021/09/25 00:33:57;;;;;;;12.13;6.50;;;;;;;14.65;87.79;101385.72;2089702;28;20060;-63
2021/09/25 00:34:57;;;;;;;11.53;6.13;;;;;;;14.65;87.78;101387.53;2090288;28;20056;-64
2021/09/25 00:35:58;;;;;;;13.27;8.40;;;;;;;14.64;87.55;101391.91;2090149;28;20028;-64
2021/09/25 00:36:58;;;;;;;12.77;6.50;;;;;;;14.65;88.16;101388.34;2090291;28;20025;-63
2021/09/25 00:37:58;;;;;;;14.83;8.37;;;;;;;14.63;88.12;101390.22;2090233;28;20095;-64
2021/09/25 00:38:58;;;;;;;13.33;7.27;;;;;;;14.63;87.88;101390.22;2089658;28;20119;-63
2021/09/25 00:39:59;;;;;;;12.80;7.07;;;;;;;14.63;87.92;101397.25;2089203;28;20032;-64
2021/09/25 00:40:59;;;;;;;12.27;6.57;;;;;;;14.63;87.61;101392.84;2089870;28;20033;-64
2021/09/25 00:42:00;;;;;;;11.43;7.27;;;;;;;14.63;87.71;101391.97;2090246;28;20574;-63
2021/09/25 00:43:00;;;;;;;13.23;7.97;;;;;;;14.63;87.67;101394.63;2089555;28;20119;-63
2021/09/25 00:44:00;;;;;;;10.77;7.00;;;;;;;14.62;87.67;101388.53;2089632;28;20107;-65
2021/09/25 00:45:01;;;;;;;12.33;7.10;;;;;;;14.62;87.84;101385.91;2090210;28;20044;-62
2021/09/25 00:46:01;;;;;;;15.38;7.10;;;;;;;14.63;87.85;101389.34;2090154;28;20064;-63
2021/09/25 00:47:02;;;;;;;13.53;7.40;;;;;;;14.64;87.48;101391.91;2090187;28;20067;-64
2021/09/25 00:48:02;;;;;;;10.75;7.60;;;;;;;14.64;87.63;101384.03;2090056;28;20057;-63
2021/09/25 00:49:03;;;;;;;13.40;8.10;;;;;;;14.63;87.77;101390.22;2090237;28;20025;-64
2021/09/25 00:50:05;;;;;;;10.38;6.82;;;;;;;14.63;87.69;101382.34;2090195;28;20102;-63
2021/09/25 00:51:06;;;;;;;12.13;6.57;;;;;;;14.63;87.63;101384.97;2090052;28;20033;-64
2021/09/25 00:52:07;;;;;;;10.90;7.33;;;;;;;14.61;87.61;101384.19;2090153;28;20032;-63
2021/09/25 00:53:07;;;;;;;;;;;;;;;14.65;87.53;101392.78;2090607;28;20024;-64
2021/09/25 00:54:07;;;;;;;10.20;6.80;;;;;;;14.63;87.62;101390.22;2089529;28;19990;-64
2021/09/25 00:55:08;;;;;;;11.73;6.67;;;;;;;14.62;87.85;101388.53;2089652;28;20517;-65
2021/09/25 00:56:10;;;;;;;10.30;6.60;;;;;;;14.61;87.87;101392.06;2090134;28;20029;-65
2021/09/25 00:57:10;;;;;;;13.80;7.45;;;;;;;14.60;87.55;101385.13;2090044;28;20041;-64
2021/09/25 00:58:11;;;;;;;12.70;7.37;;;;;;;14.61;87.88;101391.22;2090152;28;20767;-63
2021/09/25 00:59:12;;;;;;;11.73;6.85;;;;;;;14.62;87.64;101399.03;2090170;28;20466;-64
2021/09/25 01:00:13;;;;;;;14.18;7.43;;;;;;;14.62;87.66;101399.03;2090048;28;20021;-64
2021/09/25 01:01:13;;;;;;;10.32;7.18;;;;;;;14.62;87.56;101393.78;2090203;28;20524;-64
2021/09/25 01:02:17;;;;;;;11.97;7.00;;;;;;;14.63;87.45;101390.22;2090074;28;20040;-64
2021/09/25 01:03:17;;;;;;;11.43;6.60;;;;;;;14.61;87.66;101397.31;2090080;28;20032;-64
2021/09/25 01:04:19;;;;;;;12.13;6.73;;;;;;;14.60;87.70;101390.38;2090017;28;20497;-64
2021/09/25 01:05:21;;;;;;;9.98;6.25;;;;;;;14.61;87.67;101396.47;2089999;28;20378;-64
2021/09/25 01:06:21;;;;;;;11.95;6.78;;;;;;;14.61;87.31;101388.59;2089958;28;20540;-64
2021/09/25 01:07:21;;;;;;;9.97;5.27;;;;;;;14.62;87.43;101392.91;2089379;28;20051;-64
2021/09/25 01:08:24;;;;;;;12.10;6.80;;;;;;;14.61;87.24;101394.69;2089564;28;20770;-63
2021/09/25 01:09:25;;;;;;;13.15;6.15;;;;;;;14.61;87.80;101397.31;2090105;28;20027;-63
2021/09/25 01:10:25;;;;;;;13.50;6.03;;;;;;;14.61;87.50;101391.22;2090189;28;20029;-64
2021/09/25 01:11:26;;;;;;;12.87;7.03;;;;;;;14.60;87.67;101390.38;2090081;28;20075;-63
2021/09/25 01:12:26;;;;;;;11.00;6.57;;;;;;;14.61;87.63;101391.22;2090005;28;20024;-65
2021/09/25 01:13:27;;;;;;;13.27;6.83;;;;;;;14.62;87.57;101392.91;2090095;28;20047;-64
2021/09/25 01:14:31;;;;;;;10.93;6.37;;;;;;;14.61;87.60;101397.31;2089454;28;20560;-64
2021/09/25 01:15:31;;;;;;;10.90;6.68;;;;;;;14.61;87.82;101391.22;2081485;28;20090;-65
2021/09/25 01:16:32;;;;;;;13.45;6.78;;;;;;;14.61;87.63;101399.09;2081179;28;20112;-64
2021/09/25 01:17:32;;;;;;;11.70;7.00;;;;;;;14.59;87.68;101393.06;2089458;28;20037;-65
2021/09/25 01:18:32;;;;;;;11.70;6.40;;;;;;;14.59;87.53;101393.06;2090042;28;20039;-64
2021/09/25 01:19:33;;;;;;;10.67;6.27;;;;;;;14.59;87.46;101393.94;2090114;28;20029;-63
2021/09/25 01:20:34;;;;;;;12.90;7.47;;;;;;;14.60;87.83;101395.63;2090101;28;20036;-67
2021/09/25 01:21:34;;;;;;;9.90;5.87;;;;;;;14.60;87.62;101400.88;2090043;28;20021;-65
2021/09/25 01:22:34;;;;;;;13.33;6.60;;;;;;;14.60;87.25;101393.00;2090050;28;20099;-63
2021/09/25 01:23:36;;;;;;;11.15;7.20;;;;;;;14.63;87.09;101390.22;2089915;28;20029;-64
2021/09/25 01:24:37;;;;;;;9.00;6.30;;;;;;;14.61;87.15;101397.31;2089896;28;20045;-65
2021/09/25 01:25:37;;;;;;;15.15;7.13;;;;;;;14.62;87.57;101398.19;2090022;28;20052;-65
2021/09/25 01:26:38;;;;;;;10.43;6.40;;;;;;;14.62;87.20;101392.91;2089972;28;20395;-64
2021/09/25 01:27:39;;;;;;;9.33;5.70;;;;;;;14.61;87.22;101388.59;2089921;28;20066;-64
2021/09/25 01:28:41;;;;;;;11.68;6.70;;;;;;;14.60;87.60;101390.38;2090015;28;20017;-64
2021/09/25 01:29:42;;;;;;;8.68;6.35;;;;;;;14.62;87.54;101387.66;2089346;28;20017;-64
2021/09/25 01:30:42;;;;;;;10.38;5.60;;;;;;;14.61;87.25;101385.97;2081152;28;20029;-64
2021/09/25 01:31:42;;;;;;;9.53;6.63;;;;;;;14.61;87.57;101392.06;2089385;28;20091;-64
2021/09/25 01:32:45;;;;;;;9.87;6.57;;;;;;;14.62;87.68;101391.16;2089311;28;20021;-64
2021/09/25 01:33:48;;;;;;;9.48;6.00;;;;;;;14.60;87.43;101390.38;2089475;28;20079;-64
2021/09/25 01:34:48;;;;;;;9.68;6.63;;;;;;;14.61;87.44;101392.06;2089986;28;20021;-63
2021/09/25 01:35:48;;;;;;;10.87;6.20;;;;;;;14.60;87.37;101390.38;2090050;28;20029;-64
2021/09/25 01:36:49;;;;;;;8.73;6.13;;;;;;;14.61;87.32;101392.06;2089919;28;20423;-64
2021/09/25 01:37:52;;;;;;;9.25;6.40;;;;;;;14.61;87.48;101392.06;2089996;28;20166;-64
2021/09/25 01:38:53;;;;;;;9.73;6.90;;;;;;;14.62;87.30;101392.91;2089869;28;20029;-62
2021/09/25 01:39:53;;;;;;;9.83;6.70;;;;;;;14.63;87.58;101400.72;2089932;28;20521;-63
2021/09/25 01:40:53;;;;;;;9.80;6.60;;;;;;;14.60;87.75;101390.38;2089283;28;20127;-64
2021/09/25 01:41:54;;;;;;;7.47;6.07;;;;;;;14.60;87.59;101395.63;2089442;28;20311;-64
2021/09/25 01:42:54;;;;;;;10.60;6.83;;;;;;;14.59;87.67;101391.31;2089933;28;20479;-63
2021/09/25 01:43:54;;;;;;;10.37;6.30;;;;;;;14.59;87.74;101388.69;2089878;28;20298;-63
2021/09/25 01:44:55;;;;;;;10.23;6.90;;;;;;;14.59;87.57;101391.31;2089935;28;20051;-64
2021/09/25 01:45:56;;;;;;;10.43;6.40;;;;;;;14.60;87.71;101390.38;2089937;28;20045;-64
2021/09/25 01:46:58;;;;;;;8.98;5.45;;;;;;;14.60;87.53;101390.38;2089907;28;20064;-64
2021/09/25 01:47:59;;;;;;;11.20;6.85;;;;;;;14.60;87.57;101389.50;2089226;28;20108;-64
2021/09/25 01:48:59;;;;;;;8.63;6.07;;;;;;;14.59;87.63;101388.69;2089283;28;20021;-64
2021/09/25 01:50:02;;;;;;;9.77;6.27;;;;;;;14.60;87.39;101390.38;2089969;28;20028;-64
2021/09/25 01:51:02;;;;;;;8.75;6.07;;;;;;;14.61;87.75;101392.06;2089880;28;20470;-64
2021/09/25 01:52:03;;;;;;;7.67;5.17;;;;;;;14.60;87.58;101385.13;2090337;28;20025;-64
2021/09/25 01:53:04;;;;;;;11.70;6.05;;;;;;;14.60;87.62;101393.00;2090934;28;20740;-64
2021/09/25 01:54:05;;;;;;;12.45;6.20;;;;;;;14.58;87.71;101392.25;2090764;28;20024;-64
2021/09/25 01:55:06;;;;;;;9.13;5.60;;;;;;;14.58;87.66;101381.75;2090872;28;20048;-65
2021/09/25 01:56:13;;;;;;;9.77;5.80;;;;;;;14.59;88.00;101386.06;2091529;28;20055;-64
2021/09/25 01:57:14;;;;;;;10.77;5.60;;;;;;;14.58;88.21;101381.75;2091454;28;20036;-64
2021/09/25 01:58:14;;;;;;;7.95;6.00;;;;;;;14.58;87.89;101381.75;2091433;28;20021;-64
2021/09/25 01:59:15;;;;;;;11.87;6.77;;;;;;;14.59;87.75;101383.44;2091469;28;20064;-65
2021/09/25 02:00:15;;;;;;;8.93;6.17;;;;;;;14.60;87.70;101379.88;2091415;28;20761;-64
2021/09/25 02:01:16;;;;;;;9.98;6.10;;;;;;;14.59;87.96;101378.19;2091346;28;20025;-64
2021/09/25 02:02:17;;;;;;;9.73;5.60;;;;;;;14.59;87.74;101383.44;2091467;28;20398;-63
2021/09/25 02:03:18;;;;;;;8.85;6.15;;;;;;;14.59;87.73;101383.44;2091438;28;20730;-64
2021/09/25 02:04:18;;;;;;;8.63;5.97;;;;;;;14.60;88.18;101382.50;2091444;28;20083;-64
2021/09/25 02:05:18;;;;;;;9.67;5.77;;;;;;;14.59;88.04;101382.56;2090688;28;20060;-65
2021/09/25 02:06:18;;;;;;;9.07;5.93;;;;;;;14.58;88.04;101387.00;2090844;28;20029;-67
2021/09/25 02:07:19;;;;;;;10.63;5.30;;;;;;;14.59;87.88;101382.56;2091381;28;20430;-66
2021/09/25 02:08:19;;;;;;;10.53;6.03;;;;;;;14.60;88.04;101379.88;2091383;28;20107;-66
2021/09/25 02:09:20;;;;;;;7.67;5.67;;;;;;;14.61;88.00;101380.72;2091401;28;20659;-66
2021/09/25 02:10:20;;;;;;;9.40;5.93;;;;;;;14.61;88.37;101386.81;2090678;28;20486;-68
2021/09/25 02:11:20;;;;;;;8.03;5.70;;;;;;;14.59;87.95;101382.56;2090790;28;20056;-65
2021/09/25 02:12:20;;;;;;;9.43;5.80;;;;;;;14.60;88.10;101385.13;2091422;28;20074;-65
2021/09/25 02:13:21;;;;;;;8.90;5.60;;;;;;;14.61;88.15;101383.34;2091291;28;20021;-66
2021/09/25 02:14:21;;;;;;;10.27;6.13;;;;;;;14.60;88.04;101381.63;2091347;28;20126;-66
2021/09/25 02:15:22;;;;;;;11.27;6.43;;;;;;;14.58;88.09;101381.75;2091399;28;20058;-66
2021/09/25 02:16:22;;;;;;;8.68;6.18;;;;;;;14.60;88.31;101385.13;2091333;28;20032;-67
2021/09/25 02:17:23;;;;;;;11.80;6.37;;;;;;;14.60;88.15;101379.88;2091338;28;20021;-66
2021/09/25 02:18:23;;;;;;;9.77;6.40;;;;;;;14.60;87.81;101379.00;2091305;28;20025;-66
2021/09/25 02:19:24;;;;;;;9.05;6.25;;;;;;;14.59;88.27;101383.44;2091270;28;20096;-65
2021/09/25 02:20:24;;;;;;;7.97;5.93;;;;;;;14.59;88.25;101378.19;2091312;28;20100;-65
2021/09/25 02:21:24;;;;;;;8.90;5.93;;;;;;;14.59;88.13;101383.44;2090661;28;20052;-66
2021/09/25 02:22:25;;;;;;;11.50;6.47;;;;;;;14.59;87.98;101378.19;2090694;28;20063;-67
2021/09/25 02:23:25;;;;;;;9.38;6.20;;;;;;;14.59;87.83;101379.94;2091247;28;20021;-63
2021/09/25 02:24:25;;;;;;;8.53;6.17;;;;;;;14.60;87.88;101374.59;2091069;28;20048;-66
2021/09/25 02:25:26;;;;;;;10.63;7.10;;;;;;;14.60;87.95;101382.50;2091119;28;20021;-66
2021/09/25 02:26:26;;;;;;;13.77;6.43;;;;;;;14.60;88.31;101385.13;2091154;28;20059;-64
2021/09/25 02:27:26;;;;;;;9.13;6.60;;;;;;;14.61;87.77;101378.94;2091206;28;20116;-66
2021/09/25 02:28:28;;;;;;;10.93;7.13;;;;;;;14.61;88.11;101386.81;2091167;28;20043;-66
2021/09/25 02:29:28;;;;;;;9.50;6.57;;;;;;;14.62;88.02;101382.41;2090975;28;20738;-66
2021/09/25 02:30:29;;;;;;;8.80;6.30;;;;;;;14.61;88.18;101384.19;2091312;28;20017;-67
2021/09/25 02:31:29;;;;;;;11.07;6.60;;;;;;;14.61;88.29;101385.97;2091219;28;20024;-66
2021/09/25 02:32:29;;;;;;;11.77;6.33;;;;;;;14.60;87.97;101382.50;2091246;28;20438;-66
2021/09/25 02:33:30;;;;;;;6.57;5.00;;;;;;;14.60;88.10;101373.75;2091177;28;20044;-66
2021/09/25 02:34:31;;;;;;;10.93;5.80;;;;;;;14.60;88.02;101379.00;2091271;28;20029;-67
2021/09/25 02:35:31;;;;;;;10.30;5.68;;;;;;;14.61;88.33;101381.56;2091141;28;20024;-66
2021/09/25 02:36:31;;;;;;;11.30;6.20;;;;;;;14.61;88.44;101378.94;2091121;28;20032;-66
2021/09/25 02:37:32;;;;;;;10.07;6.07;;;;;;;14.60;88.16;101371.97;2090413;28;20021;-67
2021/09/25 02:38:32;;;;;;;11.00;6.20;;;;;;;14.59;88.36;101372.06;2090519;28;20012;-67
2021/09/25 02:39:34;;;;;;;9.07;6.40;;;;;;;14.59;88.28;101372.91;2091114;28;20055;-66
2021/09/25 02:40:35;;;;;;;8.88;5.82;;;;;;;14.59;88.34;101362.41;2091072;28;20102;-67
2021/09/25 02:41:35;;;;;;;10.68;6.15;;;;;;;14.58;88.47;101370.38;2091142;28;20067;-66
2021/09/25 02:42:36;;;;;;;11.87;6.87;;;;;;;14.57;88.43;101374.75;2091193;28;20025;-66
2021/09/25 02:43:36;;;;;;;11.07;6.25;;;;;;;14.56;88.39;101373.06;2091062;28;20028;-66
2021/09/25 02:44:36;;;;;;;14.07;7.07;;;;;;;14.57;88.64;101374.75;2091111;28;20017;-68
2021/09/25 02:45:37;;;;;;;10.20;6.37;;;;;;;14.58;88.27;101376.47;2091114;28;20103;-66
2021/09/25 02:46:37;;;;;;;9.60;6.32;;;;;;;14.57;88.20;101369.50;2090368;28;20013;-66
2021/09/25 02:47:39;;;;;;;8.53;6.23;;;;;;;14.57;88.45;101373.94;2090484;28;20021;-65
2021/09/25 02:48:39;;;;;;;;;;;;;;;14.57;88.52;101372.13;2091440;28;20036;-65
2021/09/25 02:49:39;;;;;;;10.33;5.37;;;;;;;14.55;88.70;101369.59;2090349;28;19912;-67
2021/09/25 02:50:40;;;;;;;11.93;5.70;;;;;;;14.56;88.46;101378.31;2090503;28;20043;-66
2021/09/25 02:51:40;;;;;;;10.13;5.78;;;;;;;14.54;88.79;101373.16;2091029;28;20032;-65
2021/09/25 02:52:41;;;;;;;10.33;6.40;;;;;;;14.55;88.52;101376.63;2091123;28;20032;-66
2021/09/25 02:53:43;;;;;;;10.80;5.53;;;;;;;14.56;88.71;101373.06;2091050;28;20044;-65
2021/09/25 02:54:43;;;;;;;9.95;6.25;;;;;;;14.55;88.75;101377.47;2090938;28;20036;-65
2021/09/25 02:55:43;;;;;;;10.00;6.57;;;;;;;14.55;88.70;101371.38;2091005;28;20017;-66
2021/09/25 02:56:43;;;;;;;11.40;6.23;;;;;;;14.55;88.65;101374.84;2091039;28;20097;-67
2021/09/25 02:57:45;;;;;;;10.07;6.33;;;;;;;14.53;88.87;101378.47;2090981;28;20621;-66
2021/09/25 02:58:45;;;;;;;9.05;5.65;;;;;;;14.52;88.82;101382.03;2091021;28;20029;-66
2021/09/25 02:59:45;;;;;;;10.70;5.30;;;;;;;14.52;88.63;101387.28;2090939;28;20025;-66
2021/09/25 03:00:45;;;;;;;10.03;5.53;;;;;;;14.52;89.10;101384.66;2090971;28;20028;-66
2021/09/25 03:01:46;;;;;;;13.60;6.00;;;;;;;14.52;88.69;101382.03;2091001;28;20025;-67
2021/09/25 03:02:46;;;;;;;9.80;6.23;;;;;;;14.54;89.08;101383.66;2090729;28;20043;-65
2021/09/25 03:03:46;;;;;;;8.77;5.37;;;;;;;14.53;88.67;101378.47;2090203;28;20475;-65
2021/09/25 03:04:47;;;;;;;8.67;6.23;;;;;;;14.53;88.83;101381.09;2090982;28;20028;-65
2021/09/25 03:05:47;;;;;;;10.53;6.40;;;;;;;14.53;89.01;101378.47;2090910;28;20083;-65
2021/09/25 03:06:48;;;;;;;10.03;6.40;;;;;;;14.53;89.18;101383.72;2090865;28;20478;-67
2021/09/25 03:07:48;;;;;;;8.93;5.97;;;;;;;14.51;89.13;101380.34;2090959;28;20339;-66
2021/09/25 03:08:49;;;;;;;8.80;5.37;;;;;;;14.50;89.03;101379.47;2090998;28;20018;-65
2021/09/25 03:09:49;;;;;;;10.05;6.30;;;;;;;14.51;88.90;101375.09;2090907;28;20021;-66
2021/09/25 03:10:49;;;;;;;11.13;6.53;;;;;;;14.51;89.00;101375.91;2090949;28;20028;-66
2021/09/25 03:11:50;;;;;;;12.13;6.57;;;;;;;14.52;88.92;101377.63;2090925;28;20056;-66
2021/09/25 03:12:50;;;;;;;9.98;5.47;;;;;;;14.52;88.97;101376.78;2090899;28;20029;-66
2021/09/25 03:13:50;;;;;;;10.43;6.13;;;;;;;14.52;89.39;101371.53;2090948;28;20063;-66
2021/09/25 03:14:51;;;;;;;10.23;7.00;;;;;;;14.51;89.19;101382.97;2090119;28;20596;-67
2021/09/25 03:15:51;;;;;;;10.02;6.90;;;;;;;14.51;89.12;101381.16;2090298;28;20100;-66
2021/09/25 03:16:52;;;;;;;8.53;6.73;;;;;;;14.52;89.09;101371.53;2090812;28;20027;-65
2021/09/25 03:17:53;;;;;;;9.35;6.15;;;;;;;14.51;89.22;101375.91;2090900;28;20029;-65
2021/09/25 03:18:53;;;;;;;8.77;6.47;;;;;;;14.51;89.14;101375.09;2090839;28;20124;-66
2021/09/25 03:19:53;;;;;;;11.50;7.13;;;;;;;14.50;89.37;101374.22;2090823;28;20029;-67
2021/09/25 03:20:53;;;;;;;8.30;5.97;;;;;;;14.49;89.44;101376.94;2090879;28;20389;-66
2021/09/25 03:21:54;;;;;;;8.73;5.63;;;;;;;14.49;89.28;101376.94;2090851;28;20110;-66
2021/09/25 03:22:54;;;;;;;8.13;5.23;;;;;;;14.49;89.29;101371.69;2090820;28;20028;-67
2021/09/25 03:23:54;;;;;;;8.18;5.50;;;;;;;14.50;89.18;101378.63;2090733;28;20021;-66
2021/09/25 03:24:55;;;;;;;7.77;5.67;;;;;;;14.50;89.48;101378.63;2090681;28;20130;-66
2021/09/25 03:25:55;;;;;;;11.68;6.20;;;;;;;14.49;89.53;101377.78;2090839;28;20082;-67
2021/09/25 03:26:56;;;;;;;9.43;6.03;;;;;;;14.48;89.32;101378.72;2089971;28;20025;-66
2021/09/25 03:27:56;;;;;;;10.87;6.00;;;;;;;14.48;89.35;101375.25;2090082;28;20048;-66
2021/09/25 03:28:56;;;;;;;7.97;5.50;;;;;;;14.47;89.18;101379.63;2090220;28;20032;-65
2021/09/25 03:29:56;;;;;;;8.27;6.50;;;;;;;14.46;89.28;101383.19;2090797;28;20486;-67
2021/09/25 03:30:57;;;;;;;8.87;5.50;;;;;;;14.48;89.42;101380.50;2090778;28;20433;-66
2021/09/25 03:31:57;;;;;;;11.87;6.37;;;;;;;14.48;89.49;101391.00;2090815;28;20478;-66
2021/09/25 03:32:57;;;;;;;11.07;6.20;;;;;;;14.47;89.50;101384.06;2090719;28;20025;-66
2021/09/25 03:33:58;;;;;;;13.48;6.35;;;;;;;14.46;89.65;101383.19;2090708;28;20485;-66
2021/09/25 03:34:58;;;;;;;13.13;6.03;;;;;;;14.45;89.96;101386.75;2090724;28;20029;-65
2021/09/25 03:35:58;;;;;;;9.23;5.77;;;;;;;14.44;89.67;101384.19;2090748;28;20066;-66
2021/09/25 03:36:59;;;;;;;9.80;6.30;;;;;;;14.44;89.68;101384.19;2090099;28;20074;-67
2021/09/25 03:38:00;;;;;;;10.37;6.77;;;;;;;14.45;89.63;101388.53;2090205;28;20025;-68
2021/09/25 03:39:01;;;;;;;;;;;;;;;14.44;89.46;101387.66;2091051;28;20409;-66
2021/09/25 03:40:02;;;;;;;12.23;5.80;;;;;;;14.41;89.56;101383.41;2090020;28;19917;-66
2021/09/25 03:41:03;;;;;;;;;;;;;;;14.41;89.67;101383.41;2090537;28;20048;-66
2021/09/25 03:42:03;;;;;;;8.77;5.45;;;;;;;14.40;89.80;101386.97;2090645;28;19915;-66
2021/09/25 03:43:03;;;;;;;10.73;6.30;;;;;;;14.40;89.71;101379.09;2090903;28;20020;-66
2021/09/25 03:44:04;;;;;;;8.83;5.90;;;;;;;14.40;90.01;101384.34;2090696;28;20078;-66
2021/09/25 03:45:06;;;;;;;10.27;6.20;;;;;;;14.40;89.90;101376.47;2090649;28;20037;-67
2021/09/25 03:46:06;;;;;;;10.25;6.18;;;;;;;14.39;89.80;101372.16;2089947;28;20037;-66
2021/09/25 03:47:06;;;;;;;12.37;7.03;;;;;;;14.39;89.73;101380.03;2089925;28;20033;-67
2021/09/25 03:48:07;;;;;;;8.50;6.10;;;;;;;14.39;89.51;101380.03;2090600;28;20064;-66
2021/09/25 03:49:07;;;;;;;10.03;6.30;;;;;;;14.39;89.54;101377.41;2090555;28;20287;-65
2021/09/25 03:50:08;;;;;;;8.30;6.53;;;;;;;14.37;89.61;101376.63;2090549;28;20503;-65
2021/09/25 03:51:09;;;;;;;10.52;6.35;;;;;;;14.37;89.79;101374.00;2090538;28;20319;-66
2021/09/25 03:52:09;;;;;;;10.47;6.30;;;;;;;14.36;89.77;101374.94;2090578;28;20405;-65
2021/09/25 03:53:10;;;;;;;11.70;6.37;;;;;;;14.35;89.96;101368.00;2090601;28;20279;-65
2021/09/25 03:54:10;;;;;;;9.00;5.32;;;;;;;14.36;90.06;101367.06;2089878;28;20031;-66
2021/09/25 03:55:10;;;;;;;9.47;5.27;;;;;;;14.36;90.22;101367.06;2089930;28;20033;-65
2021/09/25 03:56:11;;;;;;;9.30;5.80;;;;;;;14.37;90.06;101368.75;2090568;28;20031;-66
2021/09/25 03:57:12;;;;;;;12.32;6.25;;;;;;;14.36;89.74;101367.06;2090559;28;20025;-66
2021/09/25 03:58:12;;;;;;;9.13;5.30;;;;;;;14.39;89.76;101366.03;2089848;28;20067;-63
2021/09/25 03:59:12;;;;;;;10.40;6.07;;;;;;;14.38;89.71;101365.22;2090002;28;20032;-66
2021/09/25 04:00:13;;;;;;;11.30;5.20;;;;;;;14.38;89.50;101365.22;2090521;28;20025;-66
2021/09/25 04:01:13;;;;;;;8.85;5.90;;;;;;;14.38;89.55;101370.47;2090508;28;20104;-66
2021/09/25 04:02:13;;;;;;;8.33;5.47;;;;;;;14.39;89.51;101361.66;2090511;28;20025;-66
2021/09/25 04:03:14;;;;;;;10.10;5.53;;;;;;;14.38;89.88;101370.47;2089732;28;20029;-67
2021/09/25 04:04:14;;;;;;;8.87;5.90;;;;;;;14.38;89.45;101365.22;2081581;28;20033;-64
2021/09/25 04:05:14;;;;;;;10.10;6.27;;;;;;;14.38;89.57;101370.47;2089820;28;20478;-65
2021/09/25 04:06:15;;;;;;;10.77;5.97;;;;;;;14.37;89.57;101360.88;2090426;28;20043;-67
2021/09/25 04:07:15;;;;;;;12.73;5.83;;;;;;;14.37;89.57;101376.63;2090503;28;20083;-65
2021/09/25 04:08:15;;;;;;;9.57;5.87;;;;;;;14.36;89.68;101372.31;2090488;28;20682;-66
2021/09/25 04:09:15;;;;;;;11.27;5.57;;;;;;;14.37;89.75;101374.00;2090457;28;20028;-65
2021/09/25 04:10:16;;;;;;;11.67;6.10;;;;;;;14.37;89.62;101373.16;2090461;28;20028;-66
2021/09/25 04:11:16;;;;;;;9.35;5.72;;;;;;;14.37;89.75;101371.38;2090414;28;20029;-64
2021/09/25 04:12:17;;;;;;;11.57;6.30;;;;;;;14.37;89.67;101373.16;2090448;28;20021;-68
2021/09/25 04:13:17;;;;;;;10.00;5.60;;;;;;;14.36;89.65;101374.94;2089766;28;20074;-67
2021/09/25 04:14:19;;;;;;;9.47;5.60;;;;;;;14.35;89.61;101375.88;2089779;28;20041;-67
2021/09/25 04:15:19;;;;;;;8.43;5.25;;;;;;;14.35;89.66;101375.88;2090242;28;20032;-68
2021/09/25 04:16:19;;;;;;;9.07;5.47;;;;;;;14.35;89.94;101370.59;2090419;28;20032;-65
2021/09/25 04:17:20;;;;;;;9.60;5.40;;;;;;;14.34;89.74;101368.88;2089785;28;20518;-68
2021/09/25 04:18:20;;;;;;;10.90;5.87;;;;;;;14.35;89.68;101375.00;2089780;28;20120;-65
2021/09/25 04:19:20;;;;;;;10.53;6.10;;;;;;;14.35;90.04;101370.59;2090449;28;20116;-66
2021/09/25 04:20:20;;;;;;;9.27;5.40;;;;;;;14.33;89.93;101367.19;2089725;28;20025;-62
2021/09/25 04:21:21;;;;;;;9.43;6.23;;;;;;;14.31;89.99;101366.44;2089837;28;20470;-66
2021/09/25 04:22:21;;;;;;;11.30;5.53;;;;;;;14.32;89.98;101370.75;2090308;28;20043;-65
2021/09/25 04:23:21;;;;;;;9.70;5.18;;;;;;;14.31;89.89;101368.19;2090370;28;20090;-65
2021/09/25 04:24:22;;;;;;;11.13;6.27;;;;;;;14.31;89.92;101363.81;2090259;28;20131;-66
2021/09/25 04:25:26;;;;;;;10.27;5.83;;;;;;;14.31;89.86;101361.19;2089695;28;20028;-65
2021/09/25 04:26:26;;;;;;;10.82;5.00;;;;;;;14.30;90.14;101369.97;2089705;28;20490;-67
2021/09/25 04:27:29;;;;;;;10.87;5.93;;;;;;;14.29;90.10;101371.75;2090252;28;20023;-66
2021/09/25 04:28:29;;;;;;;10.48;6.05;;;;;;;14.30;90.17;101372.59;2090260;28;20506;-67
2021/09/25 04:29:29;;;;;;;12.27;6.33;;;;;;;14.31;90.07;101374.31;2090295;28;20025;-65
2021/09/25 04:30:34;;;;;;;7.93;5.37;;;;;;;14.31;90.13;101371.69;2089651;28;20065;-66
2021/09/25 04:31:35;;;;;;;9.52;5.80;;;;;;;14.29;90.23;101370.91;2081846;28;20060;-62
2021/09/25 04:32:35;;;;;;;9.50;6.13;;;;;;;14.29;90.31;101368.28;2089749;28;20025;-65
2021/09/25 04:33:35;;;;;;;9.43;6.10;;;;;;;14.29;90.39;101363.03;2090286;28;20052;-66
2021/09/25 04:34:36;;;;;;;9.80;5.83;;;;;;;14.29;90.18;101373.53;2090282;28;20550;-68
2021/09/25 04:35:37;;;;;;;9.03;6.37;;;;;;;14.29;90.37;101370.91;2090271;28;20030;-66
2021/09/25 04:36:40;;;;;;;9.52;5.78;;;;;;;14.29;90.34;101370.91;2090244;28;20025;-66
2021/09/25 04:37:40;;;;;;;10.68;6.35;;;;;;;14.29;90.09;101365.66;2090171;28;20445;-66
2021/09/25 04:38:41;;;;;;;11.73;6.07;;;;;;;14.29;90.40;101360.41;2090290;28;20017;-64
2021/09/25 04:39:41;;;;;;;10.53;5.80;;;;;;;14.30;90.37;101362.09;2090234;28;20025;-67
2021/09/25 04:40:41;;;;;;;10.90;6.47;;;;;;;14.29;90.30;101366.50;2090280;28;20090;-66